Metar Cercanos

 

LEPA - Palma De Mallorc, Spain
Distance from station: ONO 38km
Actualización: 27/07/2017 22:30
Despejado
Despejado
 Viento del SSO
Viento: SSO 2 km/h
Temperatura: 26°C
Rocío: 22°C
Humedad: 79%
Barómetro: 1014 hPa
Resumen: Despejado
Visibility: greater than 10 km
2017/07/27 20:30 LEPA 272030Z 21001KT CAVOK 26/22 Q1014 NOSIG
LEMH - Mahon/Menorca Is, Spain
Distance from station: ENE 105km
Actualización: 27/07/2017 22:30
Despejado
Despejado
 Viento del SO
Viento: SO 11 km/h
Temperatura: 24°C
Rocío: 22°C
Humedad: 89%
Barómetro: 1015 hPa
Resumen: Despejado
Visibility: greater than 10 km
2017/07/27 20:30 LEMH 272030Z 23006KT CAVOK 24/22 Q1015
 
LEIB - Ibiza/Es Codola, Spain
Distance from station: OSO 165km
Actualización: 27/07/2017 22:30
Despejado
Despejado
 Viento del S
Viento: S 9 km/h
Temperatura: 26°C
Rocío: 22°C
Humedad: 79%
Barómetro: 1014 hPa
Resumen: Despejado
Visibility: greater than 10 km
2017/07/27 20:30 LEIB 272030Z 17005KT 120V200 CAVOK 26/22 Q1014 NOSIG
LEBL - Barcelona Airpor, Spain
Distance from station: NNO 225km
Actualización: 27/07/2017 22:30
Parcialmente nuboso
Parcialmente nuboso
 Viento del SO
Viento: SO 11 km/h
Temperatura: 26°C
Rocío: 24°C
Humedad: 89%
Barómetro: 1014 hPa
Clouds: Parcialmente nuboso
Visibility: 10 km
Cloud details: Parcialmente nuboso 366 m
2017/07/27 20:30 LEBL 272030Z 22006KT 9999 SCT012 26/24 Q1014 NOSIG
 
LEVC - Valencia (civ/Mi, Spain
Distance from station: NO 188km
Actualización: 27/07/2017 22:30
Despejado
Despejado
 Viento del ENE
Viento: ENE 11 km/h
Temperatura: 28°C
Indice Calor: 30°C
Rocío: 22°C
Humedad: 70%
Barómetro: 1012 hPa
Resumen: Despejado
Visibility: greater than 10 km
2017/07/27 20:30 LEVC 272030Z 07006KT 030V110 CAVOK 28/22 Q1012 NOSIG
LEGE - Gerona/Costa Bra, Spain
Distance from station: N 276km
Actualización: 27/07/2017 22:30
Few Clouds
Few Clouds
 Viento del S
Viento: S 4 km/h
Temperatura: 25°C
Rocío: 21°C
Humedad: 79%
Barómetro: 1014 hPa
Clouds: Few Clouds
Visibility: 10 km
Cloud details: Few Clouds 1219 m
2017/07/27 20:30 LEGE 272030Z 17002KT 9999 FEW040 25/21 Q1014
 
LEAL - Alicante/El Alte, Spain
Distance from station: OSO 344km
Actualización: 27/07/2017 22:30
Despejado
Despejado
 Viento del SO
Viento: SO 4 km/h
Temperatura: 27°C
Indice Calor: 29°C
Rocío: 21°C
Humedad: 70%
Barómetro: 1014 hPa
Resumen: Despejado
Visibility: greater than 10 km
2017/07/27 20:30 LEAL 272030Z 22002KT CAVOK 27/21 Q1014 NOSIG
LEAM - Almeria Airport, Spain
Distance from station: SSO 56km
Actualización: 27/07/2017 22:30
Despejado
Despejado
 Viento del varies
Viento: varies 4 km/h
Temperatura: 26°C
Rocío: 24°C
Humedad: 89%
Barómetro: 1013 hPa
Resumen: Despejado
Visibility: greater than 10 km
2017/07/27 20:30 LEAM 272030Z VRB02KT CAVOK 26/24 Q1013
 
LEZG - Zaragoza (mil/Ci, Spain
Distance from station: NO 431km
Actualización: 27/07/2017 22:30
Few Clouds
Few Clouds
 Viento del O
Viento: O 17 km/h
Temperatura: 30°C
Rocío: 13°C
Humedad: 35%
Barómetro: 1013 hPa
Clouds: Few Clouds
Visibility: 10 km
Cloud details: Few Clouds 2438 m
2017/07/27 20:30 LEZG 272030Z 28009KT 9999 FEW080 30/13 Q1013
LEMD - Madrid/Barajas, Spain
Distance from station: ONO 234km
Actualización: 27/07/2017 22:30
Despejado
Despejado
 Viento del O
Viento: O 13 km/h
Temperatura: 35°C
Rocío: 8°C
Humedad: 19%
Barómetro: 1014 hPa
Resumen: Despejado
Visibility: greater than 10 km
2017/07/27 20:30 LEMD 272030Z 28007KT 250V320 CAVOK 35/08 Q1014 NOSIG
 
LEGR - Granada Airport, Spain
Distance from station: OSO 62km
Actualización: 27/07/2017 22:30
Despejado
Despejado
 Viento del SO
Viento: SO 11 km/h
Temperatura: 31°C
Rocío: 6°C
Humedad: 21%
Barómetro: 1016 hPa
Resumen: Despejado
Visibility: greater than 10 km
2017/07/27 20:30 LEGR 272030Z 23006KT 200V260 CAVOK 31/06 Q1016
LEMG - Malaga (civ/Mil), Spain
Distance from station: OSO 227km
Actualización: 27/07/2017 22:30
Despejado
Despejado
 Viento del E
Viento: E 7 km/h
Temperatura: 23°C
Rocío: 20°C
Humedad: 83%
Barómetro: 1014 hPa
Resumen: Despejado
Visibility: greater than 10 km
2017/07/27 20:30 LEMG 272030Z 08004KT CAVOK 23/20 Q1014 NOSIG
 
LEZL - Sevilla (civ/Mil, Spain
Distance from station: S 318km
Actualización: 27/07/2017 22:30
Despejado
Despejado
 Viento del SSO
Viento: SSO 7 km/h
Temperatura: 29°C
Rocío: 12°C
Humedad: 35%
Barómetro: 1012 hPa
Resumen: Despejado
Visibility: greater than 10 km
2017/07/27 20:30 LEZL 272030Z 21004KT 180V240 CAVOK 29/12 Q1012 NOSIG
LEVT - Vitoria, Spain
Distance from station: NO 226km
Actualización: 27/07/2017 22:30
Muy nuboso
Muy nuboso
 Viento del NNE
Viento: NNE 15 km/h
Temperatura: 20°C
Rocío: 16°C
Humedad: 78%
Barómetro: 1019 hPa
Clouds: Muy nuboso
Visibility: 10 km
Cloud details: Muy nuboso 610 m
2017/07/27 20:30 LEVT 272030Z 02008KT 350V050 9999 BKN020 20/16 Q1019
 
LEBB - Bilbao/Sondica, Spain
Distance from station: NNO 235km
Actualización: 27/07/2017 22:30
Muy nuboso
Muy nuboso
 Viento del calm
Viento: Calma
Temperatura: 22°C
Rocío: 19°C
Humedad: 83%
Barómetro: 1018 hPa
Clouds: Muy nuboso
Visibility: 10 km
Cloud details: Few Clouds 488 m
Parcialmente nuboso 762 m
Muy nuboso 914 m
2017/07/27 20:30 LEBB 272030Z 00000KT 9999 FEW016 SCT025 BKN030 22/19 Q1018 NOSIG
LESO - San Sebastian/Fu, Spain
Distance from station: N 231km
Actualización: 27/07/2017 22:30
Cubierto
Cubierto
 Viento del varies
Viento: varies 2 km/h
Temperatura: 23°C
Rocío: 20°C
Humedad: 83%
Barómetro: 1017 hPa
Clouds: Cubierto
Visibility: 10 km
Cloud details: Muy nuboso 640 m
Muy nuboso 1006 m
Cubierto 1250 m
2017/07/27 20:30 LESO 272030Z AUTO VRB01KT 9999 BKN021/// BKN033/// OVC041/// 23/20 Q1017
 
LEVD - Valladolid(Mil/C, Spain
Distance from station: ONO 239km
Actualización: 27/07/2017 21:30
NOT Current
Despejado
Despejado
 Viento del O
Viento: O 17 km/h
Temperatura: 30°C
Rocío: 3°C
Humedad: 18%
Barómetro: 1016 hPa
Resumen: Despejado
Visibility: greater than 10 km
2017/07/27 19:30 LEVD 271930Z 27009KT CAVOK 30/03 Q1016
LESA - Salamanca (civ/M, Spain
Distance from station: ONO 349km
Actualización: 27/07/2017 22:00
Despejado
Despejado
 Viento del ONO
Viento: ONO 13 km/h
Temperatura: 23°C
Rocío: 10°C
Humedad: 44%
Barómetro: 1017 hPa
Resumen: Despejado
Visibility: greater than 10 km
2017/07/27 20:00 LESA 272000Z 30007KT CAVOK 23/10 Q1017
 
LEXJ - Santander/Paraya, Spain
Distance from station: NNO 247km
Actualización: 27/07/2017 22:30
Cubierto
Cubierto
 Viento del N
Viento: N 11 km/h
Temperatura: 21°C
Rocío: 18°C
Humedad: 83%
Barómetro: 1018 hPa
Clouds: Cubierto
Visibility: 10 km
Cloud details: Few Clouds 366 m
Cubierto 823 m
2017/07/27 20:30 LEXJ 272030Z 36006KT 330V040 9999 FEW012 OVC027 21/18 Q1018
LEAS - Asturias/Aviles, Spain
Distance from station: NO 214km
Actualización: 27/07/2017 22:46
Light drizzle, Lluvia, Muy nuboso
Light drizzle, Lluvia, Muy nuboso
 Viento del varies
Viento: varies 4 km/h
Temperatura: 18°C
Rocío: 17°C
Humedad: 94%
Barómetro: 1019 hPa
Resumen: Light drizzle, Lluvia
Clouds: Muy nuboso
Visibility: 4 km
Cloud details: Parcialmente nuboso 91 m
Muy nuboso 152 m
2017/07/27 20:46 LEAS 272046Z VRB02KT 3800 -DZRA SCT003 BKN005 18/17 Q1019 TEMPO 2000 DZ BKN003
 
LECO - La Coruna/Alvedr, Spain
Distance from station: ONO 222km
Actualización: 27/07/2017 22:30
Muy nuboso
Muy nuboso
 Viento del NE
Viento: NE 2 km/h
Temperatura: 18°C
Rocío: 17°C
Humedad: 94%
Barómetro: 1019 hPa
Clouds: Muy nuboso
Visibility: 10 km
Cloud details: Muy nuboso 427 m
Muy nuboso 853 m
2017/07/27 20:30 LECO 272030Z 04001KT 9999 BKN014 BKN028 18/17 Q1019 TEMPO SCT013
LEVX - Vigo/Peinador, Spain
Distance from station: O 214km
Actualización: 27/07/2017 22:30
Niebla, Light drizzle, Cubierto
Niebla, Light drizzle, Cubierto
 Viento del varies
Viento: varies 4 km/h
Temperatura: 19°C
Rocío: 19°C
Humedad: 100%
Barómetro: 1019 hPa
Resumen: Niebla, Light drizzle
Clouds: Cubierto
Visibility: 0 km
Cloud details: Cubierto 30 m
2017/07/27 20:30 LEVX 272030Z VRB02KT 0300 R19/P2000 R01/0800N FG -DZ VV001 19/19 Q1019 TEMPO 0800 BCFG